Brookside, Utah
Current Conditions -  °F | °C
As of 3:15 AM on Saturday 20 Dec 2014 (Local Time) from KSGU Reporting Station
Clear Clear  
Wind Chill: 37°   Ceiling: Unl
Heat Index: 37°   Visibility: 10mi
Dew Point: 30°   Wind: 3mph
Humidity: 75%   Direction: 20°NNE
Pressure: 30.19"   Gusts: NA
Location:  37.352°N, 113.671°W
Report Text: KSGU 201015Z AUTO 02003KT 10SM CLR 03/M01 A3019 RMK AO1
Loading
Personal Weather Stations






























Interactive Weather Map New forecast layout! Learn more

10-Day Weather Forecast

Advertisements
Track Severe Weather on mobile